createdAt,value
2022-08-11T00:00:37.552Z,95740.94
2022-08-11T00:03:23.370Z,95738.53
2022-08-11T00:06:32.534Z,95740.88
2022-08-11T00:09:21.851Z,95736.13
2022-08-11T00:12:16.528Z,95738.50
2022-08-11T00:15:02.598Z,95738.50
2022-08-11T00:17:49.278Z,95739.28
2022-08-11T00:20:39.881Z,95737.25
2022-08-11T00:23:26.605Z,95734.88
2022-08-11T00:26:14.022Z,95742.38
2022-08-11T00:29:11.819Z,95743.94
2022-08-11T00:32:01.540Z,95729.69
2022-08-11T00:34:47.904Z,95739.97
2022-08-11T00:37:34.211Z,95735.63
2022-08-11T00:40:44.467Z,95733.59
2022-08-11T00:43:57.348Z,95739.88
2022-08-11T00:46:52.244Z,95743.03
2022-08-11T00:50:09.219Z,95731.13
2022-08-11T00:53:31.674Z,95736.59
2022-08-11T00:57:01.562Z,95738.56
2022-08-11T01:00:08.643Z,95729.09
2022-08-11T01:03:25.958Z,95734.19
2022-08-11T01:06:32.985Z,95729.09
2022-08-11T01:09:44.574Z,95733.38
2022-08-11T01:12:53.504Z,95721.47
2022-08-11T01:16:02.237Z,95732.97
2022-08-11T01:19:10.285Z,95735.72
2022-08-11T01:22:24.048Z,95735.72
2022-08-11T01:25:28.984Z,95735.69
2022-08-11T01:28:36.757Z,95728.22
2022-08-11T01:31:31.627Z,95730.53
2022-08-11T01:34:26.716Z,95721.47
2022-08-11T01:37:42.627Z,95720.66
2022-08-11T01:40:52.336Z,95717.41
2022-08-11T01:44:30.759Z,95708.41
2022-08-11T01:47:52.678Z,95717.84
2022-08-11T01:50:54.074Z,95718.59
2022-08-11T01:53:55.496Z,95705.97
2022-08-11T01:57:11.110Z,95700.41
2022-08-11T02:00:12.300Z,95700.03
2022-08-11T02:03:16.566Z,95706.34
2022-08-11T02:06:41.226Z,95696.91
2022-08-11T02:09:30.317Z,95701.63
2022-08-11T02:12:37.812Z,95697.63
2022-08-11T02:15:29.858Z,95695.28
2022-08-11T02:18:53.829Z,95695.25
2022-08-11T02:22:33.265Z,95688.16
2022-08-11T02:25:38.771Z,95685.00
2022-08-11T02:28:46.490Z,95679.50
2022-08-11T02:32:17.192Z,95679.50
2022-08-11T02:35:29.260Z,95688.50
2022-08-11T02:38:30.976Z,95678.69
2022-08-11T02:42:32.628Z,95695.22
2022-08-11T02:45:54.896Z,95694.44
2022-08-11T02:49:09.170Z,95684.22
2022-08-11T02:52:13.789Z,95686.97
2022-08-11T02:55:48.945Z,95694.44
2022-08-11T02:58:41.548Z,95701.53
2022-08-11T03:01:51.288Z,95699.94
2022-08-11T03:04:52.145Z,95702.69
2022-08-11T03:07:40.126Z,95696.78
2022-08-11T03:11:11.237Z,95692.75
2022-08-11T03:14:25.801Z,95700.22
2022-08-11T03:17:34.438Z,95707.59
2022-08-11T03:20:39.814Z,95710.72
2022-08-11T03:23:45.447Z,95711.53
2022-08-11T03:27:12.602Z,95707.53
2022-08-11T03:31:03.053Z,95711.88
2022-08-11T03:34:08.115Z,95709.53
2022-08-11T03:37:52.168Z,95706.81
2022-08-11T03:41:54.725Z,95715.50
2022-08-11T03:44:50.303Z,95717.88
2022-08-11T03:48:11.656Z,95718.66
2022-08-11T03:51:13.908Z,95721.88
2022-08-11T03:54:04.583Z,95726.22
2022-08-11T03:57:36.869Z,95721.00
2022-08-11T04:01:08.923Z,95727.31
2022-08-11T04:04:45.312Z,95727.31
2022-08-11T04:08:09.493Z,95728.03
2022-08-11T04:11:15.741Z,95716.97
2022-08-11T04:14:58.932Z,95734.28
2022-08-11T04:18:13.629Z,95728.84
2022-08-11T04:21:07.189Z,95731.97
2022-08-11T04:24:37.974Z,95722.47
2022-08-11T04:28:18.868Z,95724.81
2022-08-11T04:31:51.362Z,95735.06
2022-08-11T04:34:53.367Z,95735.06
2022-08-11T04:37:53.225Z,95736.66
2022-08-11T04:40:58.474Z,95739.03
2022-08-11T04:44:06.423Z,95739.81
2022-08-11T04:47:34.536Z,95740.59
2022-08-11T04:51:34.296Z,95742.97
2022-08-11T04:55:22.820Z,95727.97
2022-08-11T04:58:52.715Z,95740.56
2022-08-11T05:02:17.896Z,95746.84
2022-08-11T05:05:56.572Z,95742.84
2022-08-11T05:08:55.492Z,95742.00
2022-08-11T05:11:57.808Z,95738.03
2022-08-11T05:15:10.032Z,95734.06
2022-08-11T05:18:19.946Z,95735.66
2022-08-11T05:21:28.703Z,95732.91
2022-08-11T05:24:39.911Z,95725.41
2022-08-11T05:27:53.024Z,95735.28
2022-08-11T05:31:00.220Z,95730.25
2022-08-11T05:34:08.042Z,95738.16
2022-08-11T05:37:23.753Z,95734.22
2022-08-11T05:40:34.636Z,95744.50
2022-08-11T05:44:19.851Z,95735.06
2022-08-11T05:47:07.145Z,95733.97
2022-08-11T05:50:13.710Z,95719.41
2022-08-11T05:53:21.535Z,95735.69
2022-08-11T05:56:20.940Z,95738.13
2022-08-11T05:59:13.305Z,95736.13
2022-08-11T06:02:05.958Z,95732.25
2022-08-11T06:04:59.077Z,95730.75
2022-08-11T06:07:48.578Z,95724.47
2022-08-11T06:10:42.043Z,95732.81
2022-08-11T06:13:37.223Z,95722.97
2022-08-11T06:16:25.865Z,95722.66
2022-08-11T06:19:12.323Z,95727.78
2022-08-11T06:22:12.852Z,95738.81
2022-08-11T06:25:32.335Z,95717.47
2022-08-11T06:28:23.723Z,95722.31
2022-08-11T06:31:20.437Z,95726.28
2022-08-11T06:34:27.601Z,95720.34
2022-08-11T06:37:23.110Z,95726.31
2022-08-11T06:40:23.182Z,95729.09
2022-08-11T06:43:27.174Z,95731.09
2022-08-11T06:46:26.891Z,95735.06
2022-08-11T06:49:37.288Z,95729.16
2022-08-11T06:52:35.700Z,95728.81
2022-08-11T06:55:56.721Z,95725.72
2022-08-11T06:59:06.446Z,95724.19
2022-08-11T07:02:11.376Z,95736.81
2022-08-11T07:05:01.844Z,95724.22
2022-08-11T07:08:33.959Z,95738.09
2022-08-11T07:12:04.258Z,95718.00
2022-08-11T07:15:14.567Z,95731.50
2022-08-11T07:18:22.647Z,95737.88
2022-08-11T07:22:01.393Z,95727.25
2022-08-11T07:25:19.041Z,95722.94
2022-08-11T07:28:31.578Z,95720.59
2022-08-11T07:31:22.394Z,95718.69
2022-08-11T07:34:31.676Z,95721.44
2022-08-11T07:37:19.849Z,95712.34
2022-08-11T07:40:06.637Z,95709.63
2022-08-11T07:42:53.245Z,95704.91
2022-08-11T07:46:02.027Z,95701.78
2022-08-11T07:49:06.722Z,95704.16
2022-08-11T07:52:12.449Z,95699.44
2022-08-11T07:55:04.371Z,95705.78
2022-08-11T07:58:19.282Z,95699.47
2022-08-11T08:01:24.905Z,95708.16
2022-08-11T08:04:31.431Z,95699.09
2022-08-11T08:07:40.603Z,95707.34
2022-08-11T08:10:45.483Z,95706.94
2022-08-11T08:13:51.370Z,95707.38
2022-08-11T08:16:56.394Z,95697.50
2022-08-11T08:19:44.611Z,95712.91
2022-08-11T08:22:38.742Z,95714.50
2022-08-11T08:25:37.112Z,95707.41
2022-08-11T08:28:22.934Z,95707.41
2022-08-11T08:31:08.645Z,95701.91
2022-08-11T08:33:55.216Z,95696.38
2022-08-11T08:36:49.205Z,95692.88
2022-08-11T08:39:38.012Z,95693.25
2022-08-11T08:42:30.004Z,95685.38
2022-08-11T08:45:17.402Z,95683.00
2022-08-11T08:48:16.393Z,95679.03
2022-08-11T08:51:26.816Z,95673.13
2022-08-11T08:54:37.543Z,95679.84
2022-08-11T08:57:24.497Z,95675.13
2022-08-11T09:00:13.785Z,95684.22
2022-08-11T09:03:17.224Z,95677.88
2022-08-11T09:06:08.503Z,95676.31
2022-08-11T09:08:55.422Z,95666.44
2022-08-11T09:11:53.645Z,95666.81
2022-08-11T09:15:00.696Z,95665.63
2022-08-11T09:17:48.829Z,95657.72
2022-08-11T09:20:36.761Z,95666.41
2022-08-11T09:24:07.688Z,95669.56
2022-08-11T09:26:59.435Z,95652.19
2022-08-11T09:29:45.661Z,95666.06
2022-08-11T09:32:33.173Z,95665.25
2022-08-11T09:35:19.458Z,95654.56
2022-08-11T09:38:25.202Z,95641.94
2022-08-11T09:41:12.754Z,95649.00
2022-08-11T09:44:19.876Z,95645.06
2022-08-11T09:47:08.366Z,95637.16
2022-08-11T09:50:00.653Z,95641.91
2022-08-11T09:53:16.951Z,95636.34
2022-08-11T09:55:55.569Z,95645.81
2022-08-11T09:58:44.618Z,95632.34
2022-08-11T10:01:32.560Z,95633.91
2022-08-11T10:04:24.783Z,95645.75
2022-08-11T10:07:11.451Z,95628.75
2022-08-11T10:10:01.918Z,95632.28
2022-08-11T10:12:50.556Z,95623.56
2022-08-11T10:15:39.706Z,95629.06
2022-08-11T10:18:52.812Z,95612.47
2022-08-11T10:22:09.630Z,95616.41
2022-08-11T10:25:15.223Z,95617.13
2022-08-11T10:28:32.810Z,95613.94
2022-08-11T10:31:46.389Z,95603.63
2022-08-11T10:34:49.675Z,95608.38
2022-08-11T10:38:07.916Z,95601.97
2022-08-11T10:41:11.982Z,95600.72
2022-08-11T10:44:01.921Z,95586.06
2022-08-11T10:47:07.528Z,95582.84
2022-08-11T10:50:12.767Z,95579.28
2022-08-11T10:53:18.791Z,95580.78
2022-08-11T10:56:24.776Z,95577.22
2022-08-11T10:59:11.209Z,95564.13
2022-08-11T11:01:58.336Z,95567.59
2022-08-11T11:04:59.796Z,95559.56
2022-08-11T11:07:48.566Z,95565.81
2022-08-11T11:10:35.008Z,95559.38
2022-08-11T11:13:40.387Z,95553.75
2022-08-11T11:17:00.297Z,95554.09
2022-08-11T11:19:47.393Z,95555.94
2022-08-11T11:22:39.513Z,95561.03
2022-08-11T11:26:07.613Z,95560.63
2022-08-11T11:29:16.372Z,95558.19
2022-08-11T11:32:25.178Z,95554.19
2022-08-11T11:35:26.840Z,95550.28
2022-08-11T11:38:14.276Z,95547.09
2022-08-11T11:41:19.982Z,95545.41
2022-08-11T11:44:06.230Z,95538.19
2022-08-11T11:46:52.948Z,95537.25
2022-08-11T11:49:44.216Z,95535.16
2022-08-11T11:52:30.672Z,95531.81
2022-08-11T11:55:18.465Z,95527.78
2022-08-11T11:58:24.917Z,95526.59
2022-08-11T12:01:19.959Z,95525.81
2022-08-11T12:04:06.819Z,95530.03
2022-08-11T12:07:14.730Z,95521.63
2022-08-11T12:10:01.027Z,95520.66
2022-08-11T12:13:05.958Z,95512.56
2022-08-11T12:16:31.597Z,95515.63
2022-08-11T12:19:00.354Z,95515.50
2022-08-11T12:22:05.665Z,95499.56
2022-08-11T12:25:16.757Z,95497.84
2022-08-11T12:28:02.995Z,95493.75
2022-08-11T12:30:54.133Z,95491.22
2022-08-11T12:33:41.688Z,95496.16
2022-08-11T12:36:28.128Z,95487.72
2022-08-11T12:39:23.527Z,95497.91
2022-08-11T12:42:46.654Z,95485.59
2022-08-11T12:45:42.554Z,95489.00
2022-08-11T12:48:58.748Z,95479.59
2022-08-11T12:52:14.751Z,95472.91
2022-08-11T12:55:34.260Z,95470.84
2022-08-11T12:58:21.617Z,95461.72
2022-08-11T13:01:26.658Z,95476.06
2022-08-11T13:07:51.489Z,95479.53
2022-08-11T13:15:02.930Z,95459.44
2022-08-11T13:17:51.586Z,95454.59
2022-08-11T13:20:38.307Z,95452.41
2022-08-11T13:23:59.829Z,95459.03
2022-08-11T13:26:51.496Z,95475.94
2022-08-11T13:29:38.357Z,95466.41
2022-08-11T13:32:26.505Z,95458.88
2022-08-11T13:35:32.835Z,95449.72
2022-08-11T13:38:22.189Z,95455.59
2022-08-11T13:41:30.186Z,95453.44
2022-08-11T13:44:23.102Z,95438.59
2022-08-11T13:47:13.706Z,95435.97
2022-08-11T13:49:59.740Z,95430.66
2022-08-11T13:52:50.111Z,95432.00
2022-08-11T13:55:51.894Z,95434.09
2022-08-11T13:58:41.083Z,95433.47
2022-08-11T14:02:22.405Z,95424.09
2022-08-11T14:04:45.758Z,95423.44
2022-08-11T14:07:46.748Z,95424.91
2022-08-11T14:10:34.488Z,95424.06
2022-08-11T14:13:42.736Z,95420.03
2022-08-11T14:16:40.787Z,95410.56
2022-08-11T14:19:27.357Z,95399.28
2022-08-11T14:22:15.437Z,95416.91
2022-08-11T14:25:02.193Z,95409.75
2022-08-11T14:28:31.621Z,95403.44
2022-08-11T14:31:01.800Z,95409.25
2022-08-11T14:34:00.947Z,95405.78
2022-08-11T14:36:52.363Z,95399.78
2022-08-11T14:39:49.481Z,95398.97
2022-08-11T14:42:54.088Z,95400.78
2022-08-11T14:45:59.078Z,95397.84
2022-08-11T14:48:45.654Z,95399.44
2022-08-11T14:51:33.266Z,95399.91
2022-08-11T14:54:37.645Z,95390.81
2022-08-11T14:57:55.447Z,95386.50
2022-08-11T15:00:31.194Z,95384.94
2022-08-11T15:03:17.621Z,95398.06
2022-08-11T15:06:05.256Z,95380.13
2022-08-11T15:08:57.139Z,95388.38
2022-08-11T15:12:03.055Z,95390.28
2022-08-11T15:15:08.172Z,95390.78
2022-08-11T15:17:56.271Z,95387.09
2022-08-11T15:21:03.006Z,95381.50
2022-08-11T15:24:08.097Z,95382.53
2022-08-11T15:27:13.253Z,95381.00
2022-08-11T15:30:32.342Z,95381.50
2022-08-11T15:33:38.726Z,95378.94
2022-08-11T15:36:45.145Z,95379.56
2022-08-11T15:40:30.059Z,95379.78
2022-08-11T15:43:42.928Z,95372.16
2022-08-11T15:46:35.195Z,95375.41
2022-08-11T15:50:11.361Z,95376.34
2022-08-11T15:52:44.487Z,95372.69
2022-08-11T15:55:33.255Z,95378.09
2022-08-11T15:58:41.062Z,95376.97
2022-08-11T16:01:51.727Z,95393.41
2022-08-11T16:04:43.989Z,95389.03
2022-08-11T16:07:31.625Z,95387.44
2022-08-11T16:10:23.693Z,95371.88
2022-08-11T16:13:12.562Z,95381.22
2022-08-11T16:16:18.716Z,95390.38
2022-08-11T16:19:08.498Z,95388.88
2022-08-11T16:21:57.295Z,95392.13
2022-08-11T16:27:02.158Z,95386.56
2022-08-11T16:28:08.322Z,95390.34
2022-08-11T16:31:00.971Z,95387.19
2022-08-11T16:33:51.769Z,95384.66
2022-08-11T16:36:57.579Z,95390.97
2022-08-11T16:39:43.995Z,95383.91
2022-08-11T16:43:08.576Z,95391.94
2022-08-11T16:46:17.022Z,95394.81
2022-08-11T16:49:07.656Z,95401.84
2022-08-11T16:51:53.573Z,95408.59
2022-08-11T16:54:44.324Z,95412.34
2022-08-11T16:57:51.053Z,95411.09
2022-08-11T17:00:37.624Z,95412.44
2022-08-11T17:03:42.252Z,95413.56
2022-08-11T17:06:46.901Z,95418.78
2022-08-11T17:09:54.105Z,95429.91
2022-08-11T17:13:00.150Z,95434.94
2022-08-11T17:16:07.629Z,95440.81
2022-08-11T17:19:10.438Z,95444.72
2022-08-11T17:22:14.925Z,95445.31
2022-08-11T17:25:01.616Z,95438.75
2022-08-11T17:27:48.245Z,95445.34
2022-08-11T17:30:53.306Z,95446.31
2022-08-11T17:33:57.839Z,95440.94
2022-08-11T17:36:45.733Z,95450.66
2022-08-11T17:39:32.678Z,95447.19
2022-08-11T17:42:38.201Z,95465.22
2022-08-11T17:45:44.312Z,95459.84
2022-08-11T17:48:33.144Z,95463.19
2022-08-11T17:51:39.863Z,95465.66
2022-08-11T17:54:50.362Z,95461.75
2022-08-11T17:58:00.419Z,95472.22
2022-08-11T18:00:46.436Z,95477.03
2022-08-11T18:03:33.423Z,95486.63
2022-08-11T18:06:20.009Z,95485.97
2022-08-11T18:09:40.710Z,95478.09
2022-08-11T18:12:45.539Z,95486.09
2022-08-11T18:15:55.896Z,95488.94
2022-08-11T18:19:00.684Z,95488.69
2022-08-11T18:22:15.612Z,95503.78
2022-08-11T18:25:26.531Z,95504.69
2022-08-11T18:28:32.833Z,95508.72
2022-08-11T18:31:39.869Z,95509.56
2022-08-11T18:34:49.806Z,95514.41
2022-08-11T18:38:02.962Z,95523.56
2022-08-11T18:41:10.673Z,95523.25
2022-08-11T18:44:19.158Z,95529.69
2022-08-11T18:47:29.671Z,95533.28
2022-08-11T18:50:39.357Z,95531.38
2022-08-11T18:53:47.411Z,95535.78
2022-08-11T18:56:52.335Z,95533.13
2022-08-11T18:59:58.125Z,95535.94
2022-08-11T19:03:06.458Z,95535.59
2022-08-11T19:06:38.663Z,95543.59
2022-08-11T19:09:37.172Z,95551.56
2022-08-11T19:12:42.434Z,95547.66
2022-08-11T19:15:48.540Z,95551.66
2022-08-11T19:18:57.278Z,95552.47
2022-08-11T19:22:12.164Z,95552.53
2022-08-11T19:25:25.163Z,95549.41
2022-08-11T19:28:43.643Z,95554.22
2022-08-11T19:32:14.311Z,95566.13
2022-08-11T19:35:23.925Z,95561.03
2022-08-11T19:38:31.971Z,95560.28
2022-08-11T19:41:56.798Z,95566.59
2022-08-11T19:45:01.988Z,95566.25
2022-08-11T19:48:31.806Z,95570.22
2022-08-11T19:51:33.141Z,95560.78
2022-08-11T19:54:38.703Z,95573.84
2022-08-11T19:57:44.111Z,95559.25
2022-08-11T20:00:49.937Z,95556.91
2022-08-11T20:03:54.510Z,95554.53
2022-08-11T20:06:59.366Z,95552.19
2022-08-11T20:10:05.908Z,95561.69
2022-08-11T20:13:18.206Z,95552.25
2022-08-11T20:16:39.570Z,95546.75
2022-08-11T20:20:05.780Z,95552.28
2022-08-11T20:23:16.441Z,95559.84
2022-08-11T20:26:31.487Z,95557.88
2022-08-11T20:29:44.711Z,95557.09
2022-08-11T20:32:55.336Z,95550.78
2022-08-11T20:36:00.988Z,95559.50
2022-08-11T20:39:10.761Z,95558.69
2022-08-11T20:42:18.144Z,95555.59
2022-08-11T20:45:26.778Z,95560.34
2022-08-11T20:49:03.587Z,95565.13
2022-08-11T20:52:17.100Z,95571.44
2022-08-11T20:55:51.360Z,95570.31
2022-08-11T21:02:17.683Z,95573.47
2022-08-11T21:06:09.604Z,95573.91
2022-08-11T21:08:53.012Z,95575.91
2022-08-11T21:11:59.564Z,95578.66
2022-08-11T21:15:04.691Z,95582.66
2022-08-11T21:18:10.683Z,95583.03
2022-08-11T21:21:45.997Z,95583.03
2022-08-11T21:24:52.008Z,95586.59
2022-08-11T21:28:00.134Z,95588.97
2022-08-11T21:31:05.114Z,95582.66
2022-08-11T21:34:11.888Z,95582.69
2022-08-11T21:37:21.701Z,95582.28
2022-08-11T21:40:27.280Z,95596.91
2022-08-11T21:43:34.117Z,95596.13
2022-08-11T21:46:40.970Z,95602.47
2022-08-11T21:49:53.996Z,95597.72
2022-08-11T21:53:02.064Z,95593.38
2022-08-11T21:56:07.167Z,95594.19
2022-08-11T21:59:15.377Z,95591.81
2022-08-11T22:02:20.435Z,95594.19
2022-08-11T22:05:26.957Z,95592.19
2022-08-11T22:08:32.981Z,95608.78
2022-08-11T22:11:38.551Z,95600.50
2022-08-11T22:14:44.142Z,95611.16
2022-08-11T22:17:48.932Z,95604.84
2022-08-11T22:20:54.955Z,95611.94
2022-08-11T22:23:59.875Z,95615.09
2022-08-11T22:27:05.421Z,95602.47
2022-08-11T22:30:09.987Z,95607.97
2022-08-11T22:33:16.536Z,95605.63
2022-08-11T22:36:21.560Z,95605.63
2022-08-11T22:39:29.735Z,95594.16
2022-08-11T22:42:41.473Z,95600.50
2022-08-11T22:45:46.166Z,95602.47
2022-08-11T22:48:51.526Z,95591.44
2022-08-11T22:51:56.729Z,95600.06
2022-08-11T22:55:01.859Z,95599.28
2022-08-11T22:58:11.285Z,95599.28
2022-08-11T23:01:17.364Z,95594.94
2022-08-11T23:04:22.308Z,95580.31
2022-08-11T23:07:51.812Z,95585.88
2022-08-11T23:10:55.269Z,95586.66
2022-08-11T23:14:01.535Z,95590.97
2022-08-11T23:17:08.277Z,95592.16
2022-08-11T23:20:27.399Z,95591.41
2022-08-11T23:23:39.273Z,95596.91
2022-08-11T23:26:46.814Z,95585.88
2022-08-11T23:29:55.686Z,95589.81
2022-08-11T23:33:07.297Z,95579.94
2022-08-11T23:36:12.011Z,95573.22
2022-08-11T23:39:36.411Z,95579.56
2022-08-11T23:42:41.179Z,95584.28
2022-08-11T23:45:50.802Z,95583.09
2022-08-11T23:48:56.925Z,95585.84
2022-08-11T23:52:02.799Z,95579.53
2022-08-11T23:55:08.934Z,95582.69
2022-08-11T23:58:13.335Z,95581.88
